createdAt,value
2023-02-09T00:00:29.735Z,0.24
2023-02-09T00:05:34.530Z,0.34
2023-02-09T00:10:40.203Z,0.36
2023-02-09T00:15:50.177Z,0.38
2023-02-09T00:21:02.621Z,0.32
2023-02-09T00:26:08.552Z,0.31
2023-02-09T00:31:13.840Z,0.34
2023-02-09T00:36:18.994Z,0.37
2023-02-09T00:41:43.066Z,0.35
2023-02-09T00:46:46.409Z,0.34
2023-02-09T00:51:51.529Z,0.33
2023-02-09T00:56:54.894Z,0.29
2023-02-09T01:01:58.575Z,0.36
2023-02-09T01:07:03.479Z,0.39
2023-02-09T01:12:07.547Z,0.34
2023-02-09T01:17:11.472Z,0.34
2023-02-09T01:22:16.710Z,0.39
2023-02-09T01:27:20.681Z,0.34
2023-02-09T01:32:24.249Z,0.27
2023-02-09T01:37:29.076Z,0.29
2023-02-09T01:42:32.529Z,0.32
2023-02-09T01:47:43.349Z,0.49
2023-02-09T01:52:49.634Z,0.45
2023-02-09T01:57:57.647Z,0.48
2023-02-09T02:03:05.699Z,0.48
2023-02-09T02:08:17.563Z,0.45
2023-02-09T02:13:21.725Z,0.41
2023-02-09T02:18:46.668Z,0.45
2023-02-09T02:24:07.403Z,0.46
2023-02-09T02:29:51.044Z,0.44
2023-02-09T02:35:02.915Z,0.44
2023-02-09T02:40:15.371Z,0.42
2023-02-09T02:45:30.642Z,0.41
2023-02-09T02:50:38.894Z,0.45
2023-02-09T02:55:46.292Z,0.49
2023-02-09T03:00:53.554Z,0.57
2023-02-09T03:06:00.482Z,0.58
2023-02-09T03:11:04.010Z,0.51
2023-02-09T03:16:22.595Z,0.66
2023-02-09T03:21:37.932Z,0.69
2023-02-09T03:26:46.987Z,0.74
2023-02-09T03:31:51.649Z,0.69
2023-02-09T03:36:58.864Z,0.73
2023-02-09T03:42:02.207Z,0.75
2023-02-09T03:47:08.071Z,0.68
2023-02-09T03:52:14.911Z,0.62
2023-02-09T03:57:18.474Z,0.72
2023-02-09T04:02:22.122Z,0.67
2023-02-09T04:07:26.932Z,0.72
2023-02-09T04:12:30.321Z,0.67
2023-02-09T04:17:33.767Z,0.71
2023-02-09T04:22:38.639Z,0.74
2023-02-09T04:27:41.827Z,0.81
2023-02-09T04:32:45.341Z,0.81
2023-02-09T04:37:50.248Z,0.76
2023-02-09T04:42:53.920Z,0.74
2023-02-09T04:47:57.307Z,0.77
2023-02-09T04:53:02.443Z,0.75
2023-02-09T04:58:23.520Z,0.50
2023-02-09T05:03:27.864Z,0.48
2023-02-09T05:08:33.289Z,0.60
2023-02-09T05:13:36.717Z,0.59
2023-02-09T05:18:40.114Z,0.69
2023-02-09T05:23:45.097Z,0.83
2023-02-09T05:28:48.535Z,0.82
2023-02-09T05:33:51.870Z,0.76
2023-02-09T05:38:56.612Z,0.73
2023-02-09T05:43:59.990Z,0.78
2023-02-09T05:49:03.656Z,1.00
2023-02-09T05:54:08.562Z,1.10
2023-02-09T05:59:11.616Z,1.03
2023-02-09T06:04:15.148Z,1.03
2023-02-09T06:09:20.677Z,1.17
2023-02-09T06:14:24.201Z,1.11
2023-02-09T06:19:27.552Z,1.30
2023-02-09T06:24:32.361Z,1.21
2023-02-09T06:29:35.907Z,1.18
2023-02-09T06:34:39.430Z,1.24
2023-02-09T06:39:44.383Z,1.30
2023-02-09T06:44:47.553Z,1.29
2023-02-09T06:49:50.995Z,1.21
2023-02-09T06:54:56.116Z,1.40
2023-02-09T06:59:59.180Z,1.53
2023-02-09T07:05:02.827Z,1.47
2023-02-09T07:10:10.311Z,1.45
2023-02-09T07:15:15.414Z,1.37
2023-02-09T07:20:19.021Z,1.45
2023-02-09T07:25:23.829Z,1.66
2023-02-09T07:30:27.182Z,1.74
2023-02-09T07:35:30.543Z,1.70
2023-02-09T07:40:35.337Z,1.65
2023-02-09T07:45:38.764Z,1.48
2023-02-09T07:50:42.116Z,1.78
2023-02-09T07:55:47.226Z,1.95
2023-02-09T08:00:52.015Z,2.00
2023-02-09T08:06:00.262Z,2.03
2023-02-09T08:11:05.740Z,2.10
2023-02-09T08:16:14.172Z,2.27
2023-02-09T08:21:19.560Z,2.06
2023-02-09T08:26:24.872Z,2.28
2023-02-09T08:31:28.453Z,2.01
2023-02-09T08:36:34.470Z,2.07
2023-02-09T08:41:39.372Z,2.10
2023-02-09T08:46:42.534Z,2.15
2023-02-09T08:51:46.217Z,2.08
2023-02-09T08:56:51.157Z,1.94
2023-02-09T09:01:55.181Z,1.97
2023-02-09T09:06:58.685Z,2.06
2023-02-09T09:12:03.609Z,2.12
2023-02-09T09:17:06.685Z,2.02
2023-02-09T09:22:10.266Z,1.92
2023-02-09T09:27:15.016Z,1.81
2023-02-09T09:32:18.925Z,2.06
2023-02-09T09:37:22.591Z,2.03
2023-02-09T09:42:35.912Z,2.01
2023-02-09T09:47:41.686Z,1.95
2023-02-09T09:52:48.567Z,1.77
2023-02-09T09:57:58.500Z,1.95
2023-02-09T10:03:01.859Z,1.79
2023-02-09T10:08:12.042Z,1.86
2023-02-09T10:13:22.374Z,1.73
2023-02-09T10:18:26.676Z,2.18
2023-02-09T10:23:40.017Z,2.42
2023-02-09T10:28:47.070Z,2.46
2023-02-09T10:33:55.754Z,2.49
2023-02-09T10:39:16.852Z,2.56
2023-02-09T10:44:25.608Z,2.49
2023-02-09T10:49:35.454Z,2.60
2023-02-09T10:54:43.247Z,2.40
2023-02-09T10:59:52.708Z,2.40
2023-02-09T11:04:56.147Z,2.42
2023-02-09T11:10:01.257Z,2.20
2023-02-09T11:15:13.950Z,2.40
2023-02-09T11:20:24.719Z,2.42
2023-02-09T11:25:30.348Z,2.34
2023-02-09T11:30:53.077Z,2.40
2023-02-09T11:36:10.188Z,2.63
2023-02-09T11:41:35.026Z,2.24
2023-02-09T11:46:42.070Z,2.27
2023-02-09T11:51:47.716Z,2.19
2023-02-09T11:56:54.461Z,2.32
2023-02-09T12:02:06.389Z,2.32
2023-02-09T12:07:19.502Z,2.31
2023-02-09T12:12:30.477Z,2.18
2023-02-09T12:17:43.412Z,2.24
2023-02-09T12:22:58.191Z,2.16
2023-02-09T12:28:19.816Z,2.21
2023-02-09T12:33:31.496Z,2.08
2023-02-09T12:39:07.390Z,1.95
2023-02-09T12:44:39.544Z,1.98
2023-02-09T12:49:45.163Z,1.97
2023-02-09T12:54:52.221Z,1.95
2023-02-09T13:00:43.104Z,2.08
2023-02-09T13:05:50.275Z,2.03
2023-02-09T13:10:58.997Z,1.93
2023-02-09T13:16:43.697Z,2.00
2023-02-09T13:22:00.635Z,1.90
2023-02-09T13:27:04.492Z,1.83
2023-02-09T13:32:22.137Z,2.05
2023-02-09T13:37:34.471Z,1.92
2023-02-09T13:42:38.441Z,2.01
2023-02-09T13:47:44.192Z,2.03
2023-02-09T13:52:50.854Z,1.91
2023-02-09T13:58:00.337Z,1.80
2023-02-09T14:03:12.467Z,1.76
2023-02-09T14:08:19.653Z,1.70
2023-02-09T14:13:26.481Z,1.69
2023-02-09T14:18:33.382Z,1.57
2023-02-09T14:23:38.473Z,1.50
2023-02-09T14:28:42.692Z,1.26
2023-02-09T14:33:49.127Z,1.20
2023-02-09T14:38:54.527Z,1.24
2023-02-09T14:44:03.548Z,1.32
2023-02-09T14:49:06.892Z,1.23
2023-02-09T14:54:24.127Z,1.35
2023-02-09T14:59:27.566Z,1.17
2023-02-09T15:04:30.952Z,1.08
2023-02-09T15:09:39.229Z,1.30
2023-02-09T15:14:45.294Z,1.23
2023-02-09T15:19:49.072Z,1.05
2023-02-09T15:24:54.716Z,1.00
2023-02-09T15:30:00.520Z,0.88
2023-02-09T15:35:08.908Z,1.01
2023-02-09T15:40:39.643Z,1.10
2023-02-09T15:46:00.376Z,0.94
2023-02-09T15:51:04.819Z,1.13
2023-02-09T15:56:10.572Z,1.13
2023-02-09T16:01:16.955Z,0.94
2023-02-09T16:06:24.864Z,1.05
2023-02-09T16:11:33.300Z,1.06
2023-02-09T16:16:36.994Z,1.02
2023-02-09T16:21:42.750Z,1.07
2023-02-09T16:26:47.867Z,1.14
2023-02-09T16:31:51.472Z,1.05
2023-02-09T16:36:54.981Z,1.03
2023-02-09T16:42:01.236Z,1.13
2023-02-09T16:47:11.106Z,0.90
2023-02-09T16:52:18.098Z,0.99
2023-02-09T16:57:24.388Z,0.90
2023-02-09T17:02:38.139Z,1.02
2023-02-09T17:07:53.565Z,1.05
2023-02-09T17:13:01.926Z,0.95
2023-02-09T17:18:08.251Z,0.84
2023-02-09T17:23:16.296Z,0.91
2023-02-09T17:28:21.097Z,0.75
2023-02-09T17:33:25.541Z,0.73
2023-02-09T17:38:31.274Z,0.54
2023-02-09T17:43:36.335Z,0.58
2023-02-09T17:48:39.609Z,0.66
2023-02-09T17:53:43.004Z,0.57
2023-02-09T17:58:48.407Z,0.63
2023-02-09T18:03:51.927Z,0.55
2023-02-09T18:08:55.514Z,0.62
2023-02-09T18:14:00.444Z,0.45
2023-02-09T18:19:03.519Z,0.55
2023-02-09T18:24:07.861Z,0.62
2023-02-09T18:29:12.630Z,0.63
2023-02-09T18:34:16.441Z,0.48
2023-02-09T18:39:19.869Z,0.46
2023-02-09T18:44:29.404Z,0.42
2023-02-09T18:49:32.961Z,0.61
2023-02-09T18:54:37.059Z,0.40
2023-02-09T18:59:41.842Z,0.57
2023-02-09T19:04:45.325Z,0.58
2023-02-09T19:09:48.925Z,0.40
2023-02-09T19:14:53.912Z,0.29
2023-02-09T19:19:59.137Z,0.22
2023-02-09T19:25:02.632Z,0.20
2023-02-09T19:30:09.095Z,0.30
2023-02-09T19:35:12.658Z,0.25
2023-02-09T19:40:21.695Z,0.27
2023-02-09T19:45:26.633Z,0.49
2023-02-09T19:50:30.210Z,0.17
2023-02-09T19:55:33.867Z,0.25
2023-02-09T20:00:39.595Z,0.25
2023-02-09T20:05:43.609Z,0.14
2023-02-09T20:10:47.677Z,0.14
2023-02-09T20:15:52.665Z,0.21
2023-02-09T20:20:56.194Z,0.24
2023-02-09T20:25:59.596Z,0.25
2023-02-09T20:31:04.541Z,0.24
2023-02-09T20:36:09.740Z,0.29
2023-02-09T20:41:15.317Z,0.33
2023-02-09T20:46:42.447Z,0.23
2023-02-09T20:51:47.065Z,0.06
2023-02-09T20:56:50.979Z,0.12
2023-02-09T21:01:55.920Z,0.08
2023-02-09T21:07:00.588Z,-0.01
2023-02-09T21:12:04.084Z,-0.05
2023-02-09T21:17:09.020Z,-0.06
2023-02-09T21:22:12.444Z,0.02
2023-02-09T21:27:16.118Z,0.12
2023-02-09T21:32:21.167Z,0.02
2023-02-09T21:37:24.531Z,0.02
2023-02-09T21:42:28.929Z,0.01
2023-02-09T21:47:36.175Z,0.07
2023-02-09T21:52:39.713Z,0.08
2023-02-09T21:57:43.046Z,-0.09
2023-02-09T22:02:47.994Z,0.00
2023-02-09T22:07:51.096Z,0.11
2023-02-09T22:12:54.555Z,-0.01
2023-02-09T22:17:59.297Z,0.02
2023-02-09T22:23:02.830Z,0.05
2023-02-09T22:28:06.909Z,0.01
2023-02-09T22:33:11.779Z,0.04
2023-02-09T22:38:15.015Z,-0.16
2023-02-09T22:43:18.436Z,-0.08
2023-02-09T22:48:23.323Z,-0.19
2023-02-09T22:53:27.726Z,-0.13
2023-02-09T22:58:31.271Z,-0.22
2023-02-09T23:03:36.785Z,-0.30
2023-02-09T23:08:40.162Z,-0.31
2023-02-09T23:13:44.176Z,-0.44
2023-02-09T23:18:50.635Z,-0.23
2023-02-09T23:23:54.856Z,-0.19
2023-02-09T23:29:00.173Z,-0.20
2023-02-09T23:34:05.689Z,-0.20
2023-02-09T23:39:09.050Z,-0.42
2023-02-09T23:44:13.443Z,-0.29
2023-02-09T23:49:18.334Z,-0.36
2023-02-09T23:54:21.563Z,-0.27
2023-02-09T23:59:25.078Z,-0.33
